Time;durP1;ratioP1;P1;durP2;ratioP2;P2;SDS_P1;SDS_P2;PMS_P1;PMS_P2;Temp;Humidity;BMP_temperature;BMP_pressure;BME280_temperature;BME280_humidity;BME280_pressure;Samples;Min_cycle;Max_cycle;Signal;HPM_P1;HPM_P2
2023/06/07 00:00:08;;;;;;;352.27;170.85;;;;;;;17.06;80.45;99843.81;340674;28;1396;-83
2023/06/07 00:00:20;;;;;;;354.52;170.98;;;;;;;17.00;81.12;99838.91;339595;29;1395;-83
2023/06/07 00:00:30;;;;;;;353.75;169.73;;;;;;;16.96;80.96;99843.53;338221;29;1562;-83
2023/06/07 00:00:41;;;;;;;357.57;174.30;;;;;;;17.00;81.09;99839.75;337152;29;1676;-84
2023/06/07 00:00:51;;;;;;;355.77;173.02;;;;;;;17.04;80.90;99835.13;335506;29;1550;-83
2023/06/07 00:01:08;;;;;;;353.52;169.40;;;;;;;17.06;80.94;99844.66;338284;29;857;-83
2023/06/07 00:01:18;;;;;;;352.35;167.77;;;;;;;17.13;80.59;99845.97;332763;29;4997;-85
2023/06/07 00:01:29;;;;;;;351.75;170.18;;;;;;;17.16;80.48;99844.94;332556;29;1445;-84
2023/06/07 00:01:42;;;;;;;349.30;170.47;;;;;;;17.15;80.73;99849.38;336901;29;1515;-84
2023/06/07 00:01:53;;;;;;;349.60;170.32;;;;;;;17.17;80.44;99846.63;335929;29;5638;-83
2023/06/07 00:02:04;;;;;;;349.63;170.32;;;;;;;17.14;80.29;99841.53;335953;29;1231;-83
2023/06/07 00:02:14;;;;;;;349.38;168.30;;;;;;;17.14;80.45;99846.81;334231;29;1486;-83
2023/06/07 00:02:26;;;;;;;349.17;169.13;;;;;;;17.10;80.67;99851.44;335175;29;1450;-83
2023/06/07 00:02:36;;;;;;;350.63;170.32;;;;;;;17.05;80.74;99848.25;332581;29;2208;-83
2023/06/07 00:02:47;;;;;;;350.08;169.15;;;;;;;17.04;80.91;99853.63;327966;30;1343;-83
2023/06/07 00:02:57;;;;;;;351.92;173.38;;;;;;;17.01;80.87;99851.19;333264;29;1990;-83
2023/06/07 00:03:09;;;;;;;350.70;174.03;;;;;;;17.03;81.12;99852.78;332650;29;1683;-82
2023/06/07 00:03:21;;;;;;;351.58;173.52;;;;;;;17.08;81.05;99847.22;328180;29;1362;-82
2023/06/07 00:03:32;;;;;;;352.92;171.65;;;;;;;17.05;81.35;99844.75;330413;29;1221;-82
2023/06/07 00:03:44;;;;;;;352.95;170.80;;;;;;;17.03;80.95;99836.91;333569;29;2037;-83
2023/06/07 00:03:57;;;;;;;353.38;170.25;;;;;;;17.02;81.31;99843.16;327157;29;1632;-83
2023/06/07 00:04:11;;;;;;;350.00;165.70;;;;;;;17.12;81.14;99848.72;331337;29;1344;-83
2023/06/07 00:04:21;;;;;;;347.55;164.60;;;;;;;17.18;80.74;99841.22;332639;29;5557;-83
2023/06/07 00:04:32;;;;;;;348.63;166.83;;;;;;;17.14;80.98;99852.09;330568;29;1201;-83
2023/06/07 00:04:45;;;;;;;348.77;169.57;;;;;;;17.17;81.04;99842.19;328116;30;2199;-83
2023/06/07 00:04:55;;;;;;;353.20;173.35;;;;;;;17.23;80.28;99846.22;327298;29;4707;-83
2023/06/07 00:05:06;;;;;;;353.63;175.87;;;;;;;17.27;80.58;99843.28;325241;30;2448;-83
2023/06/07 00:05:21;;;;;;;353.77;175.45;;;;;;;17.33;80.23;99849.13;322253;30;1223;-85
2023/06/07 00:05:32;;;;;;;349.60;173.40;;;;;;;17.36;80.11;99841.81;318559;31;4918;-84
2023/06/07 00:05:43;;;;;;;349.75;173.50;;;;;;;17.37;79.93;99843.50;317108;30;2461;-83
2023/06/07 00:05:53;;;;;;;348.30;171.32;;;;;;;17.43;79.75;99848.41;312536;31;2365;-83
2023/06/07 00:06:05;;;;;;;349.45;171.73;;;;;;;17.44;79.58;99844.81;313920;31;1258;-83
2023/06/07 00:06:16;;;;;;;351.98;176.55;;;;;;;17.49;79.40;99841.88;313974;31;1350;-83
2023/06/07 00:06:28;;;;;;;355.45;180.10;;;;;;;17.51;79.36;99851.41;310650;31;1751;-83
2023/06/07 00:06:41;;;;;;;353.80;179.40;;;;;;;17.49;79.23;99853.31;308072;31;1933;-84
2023/06/07 00:07:00;;;;;;;346.25;174.50;;;;;;;17.44;79.42;99850.09;306288;31;5291;-83
2023/06/07 00:07:13;;;;;;;350.10;177.23;;;;;;;17.26;79.83;99851.31;307683;31;2922;-83
2023/06/07 00:07:24;;;;;;;356.70;180.65;;;;;;;17.18;80.57;99843.03;307555;31;5473;-82
2023/06/07 00:07:35;;;;;;;358.97;181.83;;;;;;;17.15;80.72;99843.22;303037;32;2798;-82
2023/06/07 00:07:46;;;;;;;362.13;185.88;;;;;;;17.14;81.11;99841.53;304979;32;3462;-83
2023/06/07 00:07:56;;;;;;;366.80;188.10;;;;;;;17.18;80.89;99853.59;306901;32;2601;-83
2023/06/07 00:08:07;;;;;;;364.30;186.20;;;;;;;17.17;80.80;99851.91;302163;32;3427;-83
2023/06/07 00:08:20;;;;;;;362.93;183.87;;;;;;;17.12;81.30;99843.41;299447;33;1392;-83
2023/06/07 00:08:31;;;;;;;352.02;175.70;;;;;;;17.15;81.04;99848.50;300939;32;4868;-84
2023/06/07 00:08:43;;;;;;;352.35;174.73;;;;;;;17.17;81.36;99851.91;303839;32;2326;-83
2023/06/07 00:08:54;;;;;;;355.45;177.52;;;;;;;17.23;81.11;99851.53;303091;32;2828;-83
2023/06/07 00:09:08;;;;;;;358.00;178.93;;;;;;;17.26;80.97;99848.69;296393;32;3477;-83
2023/06/07 00:09:18;;;;;;;360.27;181.82;;;;;;;17.23;80.74;99849.72;293849;33;5613;-83
2023/06/07 00:09:29;;;;;;;357.33;179.73;;;;;;;17.22;80.89;99849.81;294846;33;3957;-83
2023/06/07 00:09:40;;;;;;;357.60;181.65;;;;;;;17.21;81.06;99843.69;290903;33;3566;-83
2023/06/07 00:09:50;;;;;;;356.63;180.20;;;;;;;17.20;81.01;99841.13;286971;33;3242;-83
2023/06/07 00:10:02;;;;;;;359.50;183.17;;;;;;;17.18;81.08;99843.03;283947;34;1036;-83
2023/06/07 00:10:13;;;;;;;362.40;187.93;;;;;;;17.21;81.70;99848.13;284939;34;3438;-82
2023/06/07 00:10:24;;;;;;;363.27;187.13;;;;;;;17.24;81.40;99847.94;284253;34;3386;-82
2023/06/07 00:10:34;;;;;;;361.70;182.98;;;;;;;17.26;81.27;99851.31;281665;35;1487;-83
2023/06/07 00:10:45;;;;;;;360.33;181.83;;;;;;;17.26;81.09;99851.31;283634;34;3344;-83
2023/06/07 00:10:58;;;;;;;357.63;182.48;;;;;;;17.22;81.18;99844.53;283110;34;3103;-83
2023/06/07 00:11:08;;;;;;;356.48;182.98;;;;;;;17.15;81.52;99848.50;278243;35;4455;-83
2023/06/07 00:11:21;;;;;;;354.70;179.83;;;;;;;17.15;81.54;99851.16;275658;35;1262;-84
2023/06/07 00:11:32;;;;;;;353.67;178.15;;;;;;;17.10;81.97;99850.59;277998;35;5180;-84
2023/06/07 00:11:42;;;;;;;353.67;178.18;;;;;;;17.12;82.18;99854.00;277815;35;5145;-83
2023/06/07 00:11:53;;;;;;;353.90;177.35;;;;;;;17.10;82.30;99848.81;275127;35;4752;-83
2023/06/07 00:12:05;;;;;;;358.70;179.63;;;;;;;17.10;82.00;99850.59;276436;35;1151;-83
2023/06/07 00:12:15;;;;;;;358.45;178.85;;;;;;;17.13;82.09;99850.41;270146;36;4967;-83
2023/06/07 00:12:25;;;;;;;359.10;178.43;;;;;;;17.13;82.09;99843.31;270156;36;4774;-84
2023/06/07 00:12:36;;;;;;;358.30;179.48;;;;;;;17.12;82.19;99852.19;270011;36;4541;-83
2023/06/07 00:12:46;;;;;;;357.67;178.30;;;;;;;17.14;82.15;99846.81;273011;36;1273;-83
2023/06/07 00:12:57;;;;;;;355.45;175.68;;;;;;;17.11;81.84;99841.72;270163;36;4713;-83
2023/06/07 00:13:07;;;;;;;355.60;175.10;;;;;;;17.04;82.14;99837.78;269132;36;6117;-83
2023/06/07 00:13:17;;;;;;;356.05;174.68;;;;;;;17.03;82.55;99849.28;270278;36;1257;-83
2023/06/07 00:13:28;;;;;;;358.40;178.20;;;;;;;17.03;82.64;99849.28;267533;36;6507;-83
2023/06/07 00:15:21;;;;;;;342.47;169.97;;;;;;;17.00;83.46;99846.84;2453832;27;20488;-81
2023/06/07 00:15:31;;;;;;;353.13;185.10;;;;;;;17.00;83.30;99855.63;345969;28;1204;-82
2023/06/07 00:15:42;;;;;;;354.20;187.35;;;;;;;17.01;82.84;99848.53;343373;28;1331;-82
2023/06/07 00:15:52;;;;;;;354.93;186.13;;;;;;;17.03;83.24;99849.28;342372;28;1308;-82
2023/06/07 00:16:03;;;;;;;352.60;180.30;;;;;;;17.03;83.35;99850.13;343932;28;1254;-83
2023/06/07 00:16:13;;;;;;;350.83;176.05;;;;;;;17.06;83.13;99846.44;343520;28;1263;-83
2023/06/07 00:16:24;;;;;;;351.27;174.03;;;;;;;17.10;82.95;99845.31;342087;28;1286;-83
2023/06/07 00:16:34;;;;;;;352.27;172.13;;;;;;;17.12;83.03;99844.28;340907;29;1215;-83
2023/06/07 00:16:45;;;;;;;356.97;175.33;;;;;;;17.13;82.75;99839.81;343131;28;2944;-84
2023/06/07 00:16:55;;;;;;;361.73;176.53;;;;;;;17.15;82.53;99841.44;345038;28;3106;-83
2023/06/07 00:17:08;;;;;;;362.08;178.20;;;;;;;17.14;82.39;99838.88;343185;28;3298;-83
2023/06/07 00:17:19;;;;;;;359.65;173.75;;;;;;;17.10;82.67;99845.31;342173;28;886;-83
2023/06/07 00:17:30;;;;;;;359.33;171.67;;;;;;;17.06;82.76;99842.00;339430;29;1302;-83
2023/06/07 00:17:44;;;;;;;355.65;170.02;;;;;;;17.00;83.53;99846.84;341276;28;1144;-83
2023/06/07 00:17:59;;;;;;;354.27;170.13;;;;;;;16.99;83.34;99847.78;344987;28;1368;-82
2023/06/07 00:18:10;;;;;;;356.10;173.85;;;;;;;16.93;83.44;99849.88;343274;28;1375;-82
2023/06/07 00:18:20;;;;;;;357.83;175.52;;;;;;;16.93;84.18;99849.03;341352;28;1272;-83
2023/06/07 00:18:31;;;;;;;357.70;171.30;;;;;;;16.90;84.16;99854.50;344909;28;1311;-83
2023/06/07 00:18:41;;;;;;;361.45;172.43;;;;;;;16.88;83.96;99840.56;345131;28;1196;-83
2023/06/07 00:18:52;;;;;;;358.90;172.40;;;;;;;16.89;84.06;99851.03;339462;29;1345;-83
2023/06/07 00:19:03;;;;;;;359.35;175.45;;;;;;;16.94;84.35;99854.22;339939;29;1277;-83
2023/06/07 00:19:15;;;;;;;356.92;172.85;;;;;;;16.94;84.18;99851.56;340383;29;1388;-82
2023/06/07 00:19:25;;;;;;;354.73;168.73;;;;;;;16.93;83.91;99849.88;340691;28;1369;-82
2023/06/07 00:19:35;;;;;;;355.97;169.97;;;;;;;16.96;83.89;99844.38;338086;29;1206;-83
2023/06/07 00:19:46;;;;;;;357.83;169.68;;;;;;;16.98;84.10;99846.94;339368;29;1229;-84
2023/06/07 00:19:57;;;;;;;360.47;172.73;;;;;;;16.96;84.09;99841.75;338242;29;1304;-84
2023/06/07 00:20:08;;;;;;;356.67;171.18;;;;;;;16.95;84.13;99847.97;335686;29;1324;-83
2023/06/07 00:20:19;;;;;;;356.77;172.35;;;;;;;16.98;84.20;99846.09;340141;29;1405;-84
2023/06/07 00:20:30;;;;;;;356.63;174.07;;;;;;;17.02;83.76;99847.59;338385;29;1331;-83
2023/06/07 00:20:46;;;;;;;356.95;173.15;;;;;;;17.05;83.89;99842.13;336817;29;842;-83
2023/06/07 00:20:57;;;;;;;352.50;169.73;;;;;;;17.08;83.66;99857.78;335469;29;971;-82
2023/06/07 00:21:08;;;;;;;353.52;170.68;;;;;;;17.08;83.54;99847.22;338283;29;1363;-83
2023/06/07 00:21:20;;;;;;;354.47;171.80;;;;;;;17.12;83.69;99844.28;338251;29;1242;-83
2023/06/07 00:21:31;;;;;;;352.65;173.27;;;;;;;17.16;83.53;99842.28;336791;29;1483;-82
2023/06/07 00:21:41;;;;;;;349.50;171.77;;;;;;;17.19;82.95;99839.44;335872;29;1282;-82
2023/06/07 00:21:52;;;;;;;349.20;172.00;;;;;;;17.24;82.82;99847.94;334891;29;1244;-82
2023/06/07 00:22:03;;;;;;;349.05;171.02;;;;;;;17.23;82.88;99843.59;336818;29;1227;-82
2023/06/07 00:22:13;;;;;;;351.50;174.50;;;;;;;17.27;83.04;99842.44;334164;29;1209;-82
2023/06/07 00:22:23;;;;;;;353.95;174.63;;;;;;;17.30;82.58;99847.53;332981;29;1252;-82
2023/06/07 00:22:34;;;;;;;356.63;178.17;;;;;;;17.32;82.37;99844.78;333075;29;1281;-82
2023/06/07 00:22:47;;;;;;;356.50;177.25;;;;;;;17.36;82.31;99851.56;334298;29;1250;-82
2023/06/07 00:22:58;;;;;;;355.65;179.32;;;;;;;17.37;82.25;99848.81;335010;29;1495;-82
2023/06/07 00:23:08;;;;;;;350.53;177.30;;;;;;;17.33;82.58;99847.31;332234;29;1294;-82
2023/06/07 00:23:20;;;;;;;348.08;175.88;;;;;;;17.31;83.12;99853.69;334782;29;1430;-82
2023/06/07 00:23:31;;;;;;;350.70;178.77;;;;;;;17.30;82.47;99847.53;337979;29;1725;-83
2023/06/07 00:23:41;;;;;;;354.08;180.57;;;;;;;17.30;82.80;99847.53;335559;29;1387;-83
2023/06/07 00:23:51;;;;;;;355.07;182.10;;;;;;;17.33;82.78;99842.00;335407;29;969;-83
2023/06/07 00:24:02;;;;;;;356.60;181.47;;;;;;;17.34;82.44;99849.00;338815;29;1316;-83
2023/06/07 00:24:13;;;;;;;354.40;182.30;;;;;;;17.34;82.20;99843.72;340905;28;1977;-83
2023/06/07 00:24:23;;;;;;;350.92;181.85;;;;;;;17.36;82.31;99847.09;338912;29;1280;-83
2023/06/07 00:24:34;;;;;;;349.83;184.13;;;;;;;17.33;82.60;99846.50;336902;29;902;-82
2023/06/07 00:24:44;;;;;;;350.33;183.43;;;;;;;17.31;82.60;99843.09;335289;29;1504;-82
2023/06/07 00:24:55;;;;;;;352.83;183.70;;;;;;;17.27;83.10;99847.72;334030;29;1228;-83
2023/06/07 00:25:06;;;;;;;357.60;182.40;;;;;;;17.24;83.38;99842.63;334154;29;1468;-83
2023/06/07 00:25:17;;;;;;;359.90;184.05;;;;;;;17.26;83.24;99840.75;331960;29;1603;-82
2023/06/07 00:25:27;;;;;;;359.83;185.80;;;;;;;17.24;83.38;99847.94;328914;29;2079;-82
2023/06/07 00:25:37;;;;;;;356.17;184.83;;;;;;;17.19;83.54;99839.44;329351;30;1240;-82
2023/06/07 00:25:48;;;;;;;356.70;183.30;;;;;;;17.18;83.53;99843.03;331122;29;2246;-82
2023/06/07 00:25:59;;;;;;;357.30;182.93;;;;;;;17.18;83.58;99848.31;330546;29;1890;-82
2023/06/07 00:26:09;;;;;;;358.67;185.55;;;;;;;17.15;83.78;99841.44;332947;29;1069;-83
2023/06/07 00:26:20;;;;;;;356.97;187.30;;;;;;;17.15;83.95;99843.22;334244;29;1915;-83
2023/06/07 00:26:31;;;;;;;358.40;187.67;;;;;;;17.15;83.73;99844.06;332172;29;1409;-82
2023/06/07 00:26:41;;;;;;;360.80;188.48;;;;;;;17.15;84.06;99838.78;329023;30;1249;-82
2023/06/07 00:26:52;;;;;;;358.58;183.20;;;;;;;17.18;83.88;99843.03;327879;30;1206;-83
2023/06/07 00:27:03;;;;;;;356.93;183.37;;;;;;;17.20;83.92;99844.63;329413;29;1376;-83
2023/06/07 00:27:13;;;;;;;352.08;180.02;;;;;;;17.24;83.75;99837.34;328880;29;2000;-82
2023/06/07 00:27:25;;;;;;;351.98;180.98;;;;;;;17.23;83.57;99840.94;326855;30;1413;-82
2023/06/07 00:27:35;;;;;;;359.92;185.00;;;;;;;17.24;83.72;99845.28;321754;30;1975;-83
2023/06/07 00:27:46;;;;;;;366.45;186.73;;;;;;;17.26;83.64;99846.03;320406;30;2275;-83
2023/06/07 00:27:56;;;;;;;366.13;187.37;;;;;;;17.22;83.70;99842.75;316756;30;2696;-83
2023/06/07 00:28:06;;;;;;;361.30;187.93;;;;;;;17.26;83.79;99844.25;312743;31;1375;-83
2023/06/07 00:28:17;;;;;;;359.30;188.70;;;;;;;17.27;83.73;99842.44;314887;31;2043;-82
2023/06/07 00:28:27;;;;;;;357.80;187.50;;;;;;;17.30;83.46;99842.25;313089;31;2314;-84
2023/06/07 00:28:38;;;;;;;356.90;187.37;;;;;;;17.32;83.21;99845.63;314069;31;1373;-84
2023/06/07 00:28:48;;;;;;;355.42;186.93;;;;;;;17.33;83.07;99857.88;317847;31;1571;-84
2023/06/07 00:28:59;;;;;;;356.43;187.50;;;;;;;17.22;83.58;99844.53;315526;31;1216;-85
2023/06/07 00:29:10;;;;;;;351.77;183.15;;;;;;;17.13;84.02;99845.13;312985;31;1296;-84
2023/06/07 00:29:20;;;;;;;352.55;182.88;;;;;;;17.11;84.35;99844.38;312748;31;1805;-83
2023/06/07 00:29:30;;;;;;;355.87;186.47;;;;;;;17.09;84.44;99846.25;310292;31;2150;-83
2023/06/07 00:29:41;;;;;;;359.20;188.37;;;;;;;17.07;84.80;99856.09;305113;32;2733;-84
2023/06/07 00:29:51;;;;;;;360.40;187.13;;;;;;;17.02;84.93;99853.72;303246;32;1257;-84
2023/06/07 00:30:05;;;;;;;368.17;190.70;;;;;;;17.02;85.06;99843.16;303607;32;3047;-83
2023/06/07 00:30:17;;;;;;;372.77;189.43;;;;;;;16.96;85.42;99848.81;306203;31;5473;-84
2023/06/07 00:30:27;;;;;;;370.80;187.32;;;;;;;16.88;85.69;99846.69;307448;31;2791;-83
2023/06/07 00:30:38;;;;;;;364.27;184.70;;;;;;;16.87;85.89;99854.72;308473;32;1207;-83
2023/06/07 00:30:49;;;;;;;358.88;180.57;;;;;;;16.89;86.34;99853.69;308273;31;2852;-83
2023/06/07 00:30:59;;;;;;;360.80;181.40;;;;;;;16.86;86.21;99848.59;307704;31;2028;-83
2023/06/07 00:31:10;;;;;;;362.43;184.47;;;;;;;16.87;86.24;99852.94;307906;32;1431;-83
2023/06/07 00:31:20;;;;;;;363.20;183.75;;;;;;;16.85;86.05;99846.03;305846;32;2189;-83
2023/06/07 00:31:30;;;;;;;360.80;182.33;;;;;;;16.82;86.37;99851.50;303454;32;2704;-83
2023/06/07 00:31:41;;;;;;;358.63;178.50;;;;;;;16.82;86.44;99847.09;300278;32;2875;-83
2023/06/07 00:31:51;;;;;;;358.73;178.03;;;;;;;16.84;86.24;99845.19;300362;32;1222;-85
2023/06/07 00:32:02;;;;;;;360.83;178.32;;;;;;;16.88;86.33;99851.97;299830;32;3922;-83
2023/06/07 00:32:13;;;;;;;361.20;176.68;;;;;;;16.89;86.19;99851.03;298912;32;4097;-83
2023/06/07 00:32:23;;;;;;;360.93;179.33;;;;;;;16.91;86.09;99851.75;296927;33;1312;-83
2023/06/07 00:32:33;;;;;;;356.75;175.18;;;;;;;16.89;86.15;99853.69;294069;33;4148;-83
2023/06/07 00:32:44;;;;;;;354.03;174.37;;;;;;;16.84;86.22;99849.63;294548;32;3768;-83
2023/06/07 00:32:55;;;;;;;354.30;172.23;;;;;;;16.80;86.65;99853.41;294837;33;1417;-83
2023/06/07 00:33:05;;;;;;;355.13;172.37;;;;;;;16.80;86.72;99848.97;295575;33;3895;-83
2023/06/07 00:33:16;;;;;;;357.38;171.30;;;;;;;16.82;86.67;99856.81;294352;33;2942;-83
2023/06/07 00:33:26;;;;;;;359.17;173.03;;;;;;;16.88;86.80;99844.06;289591;33;3348;-83
2023/06/07 00:33:37;;;;;;;364.10;176.75;;;;;;;16.91;86.70;99850.91;287981;34;1372;-83
2023/06/07 00:33:47;;;;;;;369.87;180.73;;;;;;;16.94;86.30;99850.72;281380;34;4355;-83
2023/06/07 00:33:57;;;;;;;367.83;179.40;;;;;;;16.95;86.35;99853.25;280509;34;5026;-83
2023/06/07 00:34:08;;;;;;;366.83;182.77;;;;;;;16.93;86.03;99841.94;280910;35;1109;-83
2023/06/07 00:34:18;;;;;;;366.38;181.80;;;;;;;16.98;86.27;99856.66;273653;35;5662;-83
2023/06/07 00:34:29;;;;;;;367.63;181.03;;;;;;;17.01;85.89;99851.19;271023;35;6552;-84
2023/06/07 00:34:39;;;;;;;370.90;179.55;;;;;;;17.00;85.87;99852.13;270220;36;1500;-84
2023/06/07 00:34:50;;;;;;;367.00;179.37;;;;;;;17.04;85.81;99857.13;270547;36;6315;-83
2023/06/07 00:35:00;;;;;;;362.88;176.95;;;;;;;17.03;85.98;99854.59;270031;36;6411;-83
2023/06/07 00:36:48;;;;;;;337.39;160.24;;;;;;;17.05;86.06;99856.19;2499246;27;20268;-83
2023/06/07 00:36:58;;;;;;;346.13;169.27;;;;;;;17.00;86.02;99850.34;351871;28;1241;-83
2023/06/07 00:37:08;;;;;;;348.08;170.45;;;;;;;16.98;86.35;99854.03;348962;28;749;-82
2023/06/07 00:37:19;;;;;;;352.03;173.30;;;;;;;16.92;86.60;99853.47;346136;28;1315;-82
2023/06/07 00:37:29;;;;;;;353.80;175.80;;;;;;;16.89;87.04;99853.69;347412;28;1315;-83
2023/06/07 00:37:40;;;;;;;354.90;176.30;;;;;;;16.90;86.96;99855.34;346203;28;1220;-82
2023/06/07 00:37:51;;;;;;;356.45;173.55;;;;;;;16.86;87.03;99851.22;347129;28;1375;-82
2023/06/07 00:38:04;;;;;;;356.77;171.80;;;;;;;16.87;87.07;99849.44;348752;28;1326;-83
2023/06/07 00:38:14;;;;;;;362.42;172.68;;;;;;;16.86;87.22;99848.59;346694;28;1318;-83
2023/06/07 00:38:25;;;;;;;365.20;175.27;;;;;;;16.91;87.02;99851.75;348767;28;1328;-83
2023/06/07 00:38:35;;;;;;;364.85;177.88;;;;;;;16.95;86.67;99855.91;347379;28;1300;-83
2023/06/07 00:38:45;;;;;;;357.00;175.77;;;;;;;16.96;86.73;99849.69;346950;28;1190;-83
2023/06/07 00:38:56;;;;;;;355.83;175.33;;;;;;;17.01;86.90;99857.31;347625;28;1233;-85
2023/06/07 00:39:06;;;;;;;354.20;176.00;;;;;;;17.01;86.61;99848.53;347538;28;1285;-83
2023/06/07 00:39:17;;;;;;;353.70;176.30;;;;;;;17.03;86.47;99851.94;346961;28;1413;-83
2023/06/07 00:39:28;;;;;;;352.15;174.40;;;;;;;17.04;86.38;99845.69;349705;28;1342;-83
2023/06/07 00:39:39;;;;;;;353.48;172.63;;;;;;;17.02;86.50;99858.16;350644;28;1324;-82
2023/06/07 00:39:49;;;;;;;353.13;171.43;;;;;;;17.08;86.30;99852.50;350098;28;1184;-82
2023/06/07 00:39:59;;;;;;;354.97;174.07;;;;;;;17.06;86.32;99854.38;349022;28;1207;-82
2023/06/07 00:40:10;;;;;;;357.35;177.63;;;;;;;17.09;86.30;99848.91;350128;28;1360;-82
2023/06/07 00:40:21;;;;;;;357.02;179.25;;;;;;;17.04;86.05;99845.69;348925;28;1305;-82
2023/06/07 00:40:32;;;;;;;355.85;176.10;;;;;;;17.06;86.91;99854.38;349002;28;1034;-82
2023/06/07 00:40:42;;;;;;;357.23;175.63;;;;;;;17.06;86.24;99849.94;348762;28;1211;-83
2023/06/07 00:40:52;;;;;;;360.27;176.17;;;;;;;17.12;86.25;99851.34;352555;28;1310;-83
2023/06/07 00:41:03;;;;;;;359.05;177.25;;;;;;;17.15;85.97;99851.16;350279;28;1319;-83
2023/06/07 00:41:13;;;;;;;354.80;178.03;;;;;;;17.16;85.74;99850.22;348282;28;1222;-83
2023/06/07 00:41:24;;;;;;;352.85;180.20;;;;;;;17.19;85.80;99855.31;345902;28;1231;-83
2023/06/07 00:41:34;;;;;;;354.87;180.83;;;;;;;17.22;85.55;99849.81;346481;28;1222;-83
2023/06/07 00:41:45;;;;;;;353.40;179.25;;;;;;;17.22;85.61;99849.81;345858;28;1036;-83
2023/06/07 00:41:55;;;;;;;351.50;177.47;;;;;;;17.18;85.69;99848.31;345237;28;1122;-83
2023/06/07 00:42:06;;;;;;;350.15;177.77;;;;;;;17.14;85.86;99846.81;346512;28;1241;-83
2023/06/07 00:42:16;;;;;;;350.37;178.03;;;;;;;17.07;86.31;99840.22;349118;28;1379;-83
2023/06/07 00:42:27;;;;;;;351.27;179.17;;;;;;;17.05;86.29;99852.69;351664;28;1218;-83
2023/06/07 00:42:37;;;;;;;354.97;179.10;;;;;;;16.96;86.80;99854.97;349643;28;1320;-83
2023/06/07 00:42:48;;;;;;;355.98;178.10;;;;;;;16.95;87.01;99852.41;347346;28;1416;-83
2023/06/07 00:42:58;;;;;;;355.60;178.73;;;;;;;16.95;86.86;99847.97;348110;28;1286;-83
2023/06/07 00:43:10;;;;;;;353.98;178.57;;;;;;;16.95;86.80;99853.25;347414;28;1319;-84
2023/06/07 00:43:20;;;;;;;351.20;177.50;;;;;;;16.98;86.85;99854.03;344731;28;1331;-83
2023/06/07 00:43:30;;;;;;;350.33;176.48;;;;;;;17.01;86.96;99856.47;348589;28;1373;-83
2023/06/07 00:43:41;;;;;;;351.27;178.07;;;;;;;17.01;86.97;99854.69;344888;28;1526;-83
2023/06/07 00:43:51;;;;;;;352.13;177.30;;;;;;;16.95;86.84;99855.91;341954;28;1342;-83
2023/06/07 00:44:02;;;;;;;353.63;177.47;;;;;;;16.89;87.07;99853.69;339371;28;1146;-83
2023/06/07 00:44:12;;;;;;;355.67;176.73;;;;;;;16.87;87.56;99855.56;340483;29;1411;-83
2023/06/07 00:44:23;;;;;;;355.93;177.17;;;;;;;16.88;87.58;99854.63;343075;28;1373;-83
2023/06/07 00:44:34;;;;;;;356.23;176.43;;;;;;;16.85;87.86;99851.31;339371;29;1146;-83
2023/06/07 00:44:44;;;;;;;352.27;170.55;;;;;;;16.85;87.71;99851.31;340797;28;1550;-83
2023/06/07 00:44:54;;;;;;;353.40;168.33;;;;;;;16.83;87.96;99854.06;342069;28;1453;-83
2023/06/07 00:45:06;;;;;;;352.17;163.93;;;;;;;16.78;88.12;99844.72;338191;29;1226;-83
2023/06/07 00:45:16;;;;;;;351.70;167.27;;;;;;;16.82;88.26;99856.81;342798;28;1718;-83
2023/06/07 00:45:26;;;;;;;349.77;168.97;;;;;;;16.83;88.09;99851.44;339587;29;1291;-83
2023/06/07 00:45:37;;;;;;;350.40;172.20;;;;;;;16.84;88.05;99855.75;336374;29;1906;-83
2023/06/07 00:45:47;;;;;;;353.00;171.73;;;;;;;16.82;88.24;99854.16;336768;29;1318;-83
2023/06/07 00:45:58;;;;;;;356.53;172.50;;;;;;;16.79;88.50;99849.06;333537;29;1202;-83
2023/06/07 00:46:08;;;;;;;356.65;171.93;;;;;;;16.83;88.55;99859.34;337017;29;1339;-83
2023/06/07 00:46:19;;;;;;;356.00;172.10;;;;;;;16.88;88.23;99851.97;339555;29;1132;-83
2023/06/07 00:46:30;;;;;;;354.35;169.23;;;;;;;16.94;88.19;99854.22;338837;29;1402;-82
2023/06/07 00:46:40;;;;;;;355.97;170.03;;;;;;;16.95;87.91;99857.72;338049;29;888;-83
2023/06/07 00:46:53;;;;;;;356.35;170.88;;;;;;;17.01;88.16;99859.13;337116;29;1473;-83
2023/06/07 00:47:04;;;;;;;357.35;174.35;;;;;;;16.99;87.80;99859.22;338107;29;994;-83
2023/06/07 00:47:14;;;;;;;355.87;174.10;;;;;;;16.98;87.50;99859.31;339997;28;1699;-83
2023/06/07 00:47:25;;;;;;;355.35;177.70;;;;;;;16.99;87.39;99853.94;339778;28;1624;-83
2023/06/07 00:47:37;;;;;;;357.13;180.25;;;;;;;17.01;87.50;99854.69;338019;29;1330;-83
2023/06/07 00:47:47;;;;;;;359.55;182.25;;;;;;;17.02;87.34;99852.88;335524;29;1445;-83
2023/06/07 00:47:57;;;;;;;359.98;182.35;;;;;;;17.05;87.31;99857.97;338932;29;1229;-83
2023/06/07 00:48:08;;;;;;;359.23;181.77;;;;;;;17.04;87.63;99858.91;335226;29;1671;-82
2023/06/07 00:48:18;;;;;;;357.57;181.73;;;;;;;17.03;87.28;99859.88;333060;29;1233;-83
2023/06/07 00:48:29;;;;;;;354.63;178.48;;;;;;;17.01;87.32;99856.47;334936;29;1309;-82
2023/06/07 00:48:39;;;;;;;351.77;177.40;;;;;;;16.96;87.33;99860.25;334355;29;1233;-82
2023/06/07 00:48:50;;;;;;;351.60;178.37;;;;;;;16.93;87.59;99859.59;334240;29;1366;-82
2023/06/07 00:49:00;;;;;;;351.67;177.77;;;;;;;16.92;87.71;99858.75;332718;29;1573;-82
2023/06/07 00:49:11;;;;;;;352.52;175.98;;;;;;;16.94;87.82;99856.84;330727;29;2102;-83
2023/06/07 00:49:22;;;;;;;353.13;173.32;;;;;;;16.96;87.94;99854.13;329243;30;1428;-83
2023/06/07 00:49:32;;;;;;;356.08;174.65;;;;;;;16.98;87.95;99861.94;327580;30;1175;-82
2023/06/07 00:49:43;;;;;;;358.33;176.53;;;;;;;16.92;88.08;99860.53;324575;30;2276;-83
2023/06/07 00:49:54;;;;;;;359.17;177.40;;;;;;;16.84;88.36;99855.75;324197;30;2149;-82
2023/06/07 00:50:05;;;;;;;360.52;180.82;;;;;;;16.79;88.52;99849.91;327030;30;1341;-82
2023/06/07 00:50:15;;;;;;;357.17;178.32;;;;;;;16.81;88.86;99858.59;325317;30;1831;-83
2023/06/07 00:50:25;;;;;;;356.70;176.97;;;;;;;16.79;89.00;99847.28;326698;30;2144;-83
2023/06/07 00:50:36;;;;;;;354.93;175.70;;;;;;;16.81;89.38;99842.75;325722;30;1290;-84
2023/06/07 00:50:46;;;;;;;354.65;174.57;;;;;;;16.87;89.24;99854.72;328918;30;1318;-81
2023/06/07 00:50:57;;;;;;;356.23;176.60;;;;;;;16.86;88.91;99848.59;324788;30;2056;-82
2023/06/07 00:51:07;;;;;;;356.60;176.68;;;;;;;16.82;89.04;99844.44;321902;30;3089;-82
2023/06/07 00:51:18;;;;;;;362.00;177.57;;;;;;;16.86;88.72;99853.03;323476;30;3348;-82
2023/06/07 00:51:29;;;;;;;365.52;177.18;;;;;;;16.90;89.01;99846.56;323303;30;1849;-84
2023/06/07 00:51:39;;;;;;;362.42;173.57;;;;;;;16.91;88.77;99845.63;322367;30;3399;-82
2023/06/07 00:51:50;;;;;;;358.10;170.05;;;;;;;16.93;88.56;99846.38;322390;30;1216;-82
2023/06/07 00:52:00;;;;;;;361.67;171.87;;;;;;;16.95;88.56;99855.91;316225;30;2426;-82
2023/06/07 00:52:11;;;;;;;364.70;175.93;;;;;;;16.96;88.62;99857.59;315442;31;3114;-82
2023/06/07 00:52:21;;;;;;;367.50;177.80;;;;;;;16.95;88.58;99842.69;318466;31;1285;-82
2023/06/07 00:52:33;;;;;;;360.40;175.65;;;;;;;16.95;88.54;99847.97;312349;31;1345;-82
2023/06/07 00:52:44;;;;;;;362.20;175.75;;;;;;;17.00;88.46;99852.13;313470;31;2332;-82
2023/06/07 00:52:54;;;;;;;362.73;178.00;;;;;;;17.01;88.45;99852.03;308841;31;1573;-83
2023/06/07 00:53:05;;;;;;;359.85;177.07;;;;;;;17.06;87.89;99843.81;308566;32;1238;-83
2023/06/07 00:53:15;;;;;;;357.20;176.82;;;;;;;17.06;88.20;99854.38;310238;31;2366;-84
2023/06/07 00:53:27;;;;;;;358.90;173.30;;;;;;;17.12;87.90;99846.06;305748;31;2857;-82